createdAt,value
2022-12-17T00:01:54.062Z,-2.49
2022-12-17T00:04:39.997Z,-2.42
2022-12-17T00:07:25.972Z,-2.40
2022-12-17T00:10:12.012Z,-2.21
2022-12-17T00:12:58.045Z,-2.27
2022-12-17T00:15:44.108Z,-2.25
2022-12-17T00:18:30.220Z,-2.23
2022-12-17T00:21:19.429Z,-2.26
2022-12-17T00:24:06.359Z,-2.17
2022-12-17T00:26:52.986Z,-2.11
2022-12-17T00:29:38.978Z,-2.27
2022-12-17T00:32:25.209Z,-2.24
2022-12-17T00:35:11.276Z,-2.17
2022-12-17T00:37:57.348Z,-2.23
2022-12-17T00:40:43.249Z,-2.14
2022-12-17T00:43:32.046Z,-2.22
2022-12-17T00:46:18.086Z,-2.15
2022-12-17T00:49:04.022Z,-2.40
2022-12-17T00:51:49.852Z,-2.40
2022-12-17T00:54:35.858Z,-2.22
2022-12-17T00:57:21.976Z,-2.06
2022-12-17T01:00:07.810Z,-2.15
2022-12-17T01:02:53.934Z,-2.16
2022-12-17T01:05:40.153Z,-2.54
2022-12-17T01:08:31.988Z,-2.57
2022-12-17T01:11:25.453Z,-2.29
2022-12-17T01:14:12.666Z,-2.32
2022-12-17T01:16:58.636Z,-2.55
2022-12-17T01:19:44.693Z,-2.46
2022-12-17T01:22:30.424Z,-2.35
2022-12-17T01:25:16.551Z,-2.40
2022-12-17T01:28:02.625Z,-2.33
2022-12-17T01:30:48.495Z,-2.43
2022-12-17T01:33:35.012Z,-2.29
2022-12-17T01:36:21.529Z,-2.27
2022-12-17T01:39:07.296Z,-2.43
2022-12-17T01:41:53.103Z,-2.48
2022-12-17T01:45:13.341Z,-2.46
2022-12-17T01:48:21.379Z,-2.48
2022-12-17T01:51:13.230Z,-2.40
2022-12-17T01:54:08.531Z,-2.67
2022-12-17T01:56:59.712Z,-2.64
2022-12-17T02:00:01.475Z,-2.47
2022-12-17T02:02:47.577Z,-2.56
2022-12-17T02:05:33.791Z,-2.50
2022-12-17T02:08:52.309Z,-2.46
2022-12-17T02:12:28.034Z,-2.44
2022-12-17T02:15:23.258Z,-2.48
2022-12-17T02:18:16.858Z,-2.42
2022-12-17T02:21:09.136Z,-2.39
2022-12-17T02:24:37.018Z,-2.44
2022-12-17T02:27:28.207Z,-2.47
2022-12-17T02:30:20.997Z,-2.38
2022-12-17T02:33:10.118Z,-2.33
2022-12-17T02:36:03.784Z,-2.57
2022-12-17T02:38:51.430Z,-2.79
2022-12-17T02:41:48.710Z,-2.59
2022-12-17T02:44:38.162Z,-2.65
2022-12-17T02:47:29.458Z,-2.65
2022-12-17T02:50:15.516Z,-2.79
2022-12-17T02:53:06.007Z,-2.68
2022-12-17T02:55:54.101Z,-2.59
2022-12-17T02:58:40.249Z,-2.75
2022-12-17T03:01:26.469Z,-2.86
2022-12-17T03:04:12.556Z,-2.87
2022-12-17T03:07:02.566Z,-2.75
2022-12-17T03:09:48.685Z,-2.86
2022-12-17T03:12:34.504Z,-2.86
2022-12-17T03:15:20.554Z,-2.83
2022-12-17T03:18:06.618Z,-2.79
2022-12-17T03:20:52.343Z,-2.64
2022-12-17T03:23:38.628Z,-2.90
2022-12-17T03:26:24.835Z,-2.53
2022-12-17T03:29:10.826Z,-2.49
2022-12-17T03:31:56.667Z,-2.51
2022-12-17T03:34:42.714Z,-2.43
2022-12-17T03:37:28.842Z,-2.42
2022-12-17T03:40:14.979Z,-2.64
2022-12-17T03:43:01.133Z,-2.48
2022-12-17T03:45:47.249Z,-2.50
2022-12-17T03:48:33.796Z,-2.44
2022-12-17T03:51:20.555Z,-2.42
2022-12-17T03:54:06.680Z,-2.52
2022-12-17T03:56:52.917Z,-2.38
2022-12-17T03:59:39.013Z,-2.28
2022-12-17T04:02:25.374Z,-2.39
2022-12-17T04:05:16.554Z,-2.39
2022-12-17T04:08:06.151Z,-2.33
2022-12-17T04:10:52.006Z,-2.43
2022-12-17T04:13:41.124Z,-2.30
2022-12-17T04:16:28.104Z,-2.32
2022-12-17T04:19:14.154Z,-2.23
2022-12-17T04:22:00.058Z,-2.22
2022-12-17T04:24:46.026Z,-2.20
2022-12-17T04:27:32.147Z,-2.18
2022-12-17T04:30:18.268Z,-2.38
2022-12-17T04:33:04.357Z,-2.28
2022-12-17T04:35:50.365Z,-2.30
2022-12-17T04:38:36.351Z,-2.34
2022-12-17T04:41:32.658Z,-2.29
2022-12-17T04:44:18.538Z,-2.24
2022-12-17T04:47:04.307Z,-2.25
2022-12-17T04:49:50.302Z,-2.21
2022-12-17T04:52:36.043Z,-2.26
2022-12-17T04:55:21.938Z,-2.28
2022-12-17T04:58:08.133Z,-2.28
2022-12-17T05:00:53.822Z,-2.23
2022-12-17T05:03:40.157Z,-2.15
2022-12-17T05:06:27.533Z,-2.04
2022-12-17T05:09:13.691Z,-2.06
2022-12-17T05:11:59.379Z,-2.05
2022-12-17T05:14:45.324Z,-2.00
2022-12-17T05:17:31.518Z,-2.25
2022-12-17T05:20:17.565Z,-2.20
2022-12-17T05:23:03.576Z,-2.31
2022-12-17T05:25:49.711Z,-2.11
2022-12-17T05:28:35.789Z,-2.22
2022-12-17T05:31:21.667Z,-2.12
2022-12-17T05:34:07.881Z,-2.06
2022-12-17T05:36:53.795Z,-1.98
2022-12-17T05:39:39.617Z,-1.97
2022-12-17T05:42:25.373Z,-2.47
2022-12-17T05:45:11.256Z,-2.29
2022-12-17T05:47:57.351Z,-2.24
2022-12-17T05:50:43.053Z,-2.03
2022-12-17T05:53:28.973Z,-2.16
2022-12-17T05:56:15.235Z,-2.13
2022-12-17T05:59:01.216Z,-2.55
2022-12-17T06:01:47.086Z,-2.59
2022-12-17T06:04:33.149Z,-2.55
2022-12-17T06:07:19.188Z,-2.49
2022-12-17T06:10:05.203Z,-2.59
2022-12-17T06:12:51.227Z,-2.58
2022-12-17T06:15:37.225Z,-2.69
2022-12-17T06:18:23.361Z,-2.69
2022-12-17T06:21:11.201Z,-2.56
2022-12-17T06:23:57.248Z,-2.31
2022-12-17T06:26:43.297Z,-2.12
2022-12-17T06:29:29.265Z,-2.19
2022-12-17T06:32:15.203Z,-2.18
2022-12-17T06:35:01.263Z,-2.09
2022-12-17T06:37:47.135Z,-1.99
2022-12-17T06:40:32.872Z,-1.95
2022-12-17T06:43:18.888Z,-1.98
2022-12-17T06:46:04.718Z,-1.87
2022-12-17T06:48:50.809Z,-2.26
2022-12-17T06:51:36.463Z,-2.28
2022-12-17T06:54:22.554Z,-2.27
2022-12-17T06:57:08.542Z,-2.20
2022-12-17T06:59:54.420Z,-2.38
2022-12-17T07:02:40.547Z,-2.22
2022-12-17T07:05:26.623Z,-2.28
2022-12-17T07:08:17.060Z,-2.19
2022-12-17T07:11:03.916Z,-2.15
2022-12-17T07:13:50.034Z,-2.18
2022-12-17T07:16:36.036Z,-2.17
2022-12-17T07:19:27.020Z,-2.27
2022-12-17T07:22:14.265Z,-2.43
2022-12-17T07:25:00.704Z,-2.47
2022-12-17T07:27:46.577Z,-2.52
2022-12-17T07:30:32.217Z,-2.65
2022-12-17T07:33:24.889Z,-2.50
2022-12-17T07:36:14.500Z,-2.31
2022-12-17T07:39:00.504Z,-2.70
2022-12-17T07:41:46.278Z,-2.57
2022-12-17T07:44:32.367Z,-2.31
2022-12-17T07:47:18.476Z,-2.24
2022-12-17T07:50:04.563Z,-2.40
2022-12-17T07:52:50.467Z,-2.22
2022-12-17T07:55:36.368Z,-2.14
2022-12-17T07:58:29.620Z,-2.16
2022-12-17T08:01:19.181Z,-2.03
2022-12-17T08:04:05.184Z,-1.92
2022-12-17T08:06:53.026Z,-1.89
2022-12-17T08:09:42.582Z,-1.84
2022-12-17T08:12:28.453Z,-1.93
2022-12-17T08:15:14.130Z,-1.89
2022-12-17T08:18:00.213Z,-1.89
2022-12-17T08:20:45.896Z,-1.77
2022-12-17T08:23:31.310Z,-1.89
2022-12-17T08:26:17.391Z,-1.90
2022-12-17T08:29:03.429Z,-1.84
2022-12-17T08:31:49.266Z,-1.78
2022-12-17T08:34:35.289Z,-1.69
2022-12-17T08:37:21.118Z,-1.76
2022-12-17T08:40:06.969Z,-1.67
2022-12-17T08:42:52.700Z,-1.71
2022-12-17T08:45:38.321Z,-1.69
2022-12-17T08:48:26.408Z,-1.68
2022-12-17T08:51:13.189Z,-1.64
2022-12-17T08:53:59.146Z,-1.62
2022-12-17T08:56:45.195Z,-1.57
2022-12-17T08:59:31.356Z,-1.55
2022-12-17T09:02:17.192Z,-1.57
2022-12-17T09:05:03.422Z,-1.53
2022-12-17T09:07:49.335Z,-1.42
2022-12-17T09:10:35.152Z,-1.42
2022-12-17T09:13:23.378Z,-1.36
2022-12-17T09:16:13.633Z,-1.40
2022-12-17T09:19:00.680Z,-1.29
2022-12-17T09:21:48.243Z,-1.18
2022-12-17T09:24:34.837Z,-1.15
2022-12-17T09:27:20.957Z,-1.17
2022-12-17T09:30:06.846Z,-1.04
2022-12-17T09:32:52.944Z,-1.12
2022-12-17T09:35:38.774Z,-1.09
2022-12-17T09:38:24.835Z,-1.08
2022-12-17T09:41:11.035Z,-1.08
2022-12-17T09:44:17.128Z,-1.10
2022-12-17T09:47:25.295Z,-0.98
2022-12-17T09:50:11.752Z,-0.97
2022-12-17T09:53:01.246Z,-0.88
2022-12-17T09:56:13.162Z,-0.94
2022-12-17T09:58:59.235Z,-0.88
2022-12-17T10:01:54.137Z,-0.76
2022-12-17T10:04:58.420Z,-0.77
2022-12-17T10:07:52.433Z,-1.03
2022-12-17T10:10:43.400Z,-0.66
2022-12-17T10:13:40.722Z,-0.65
2022-12-17T10:16:48.188Z,-0.45
2022-12-17T10:19:47.282Z,-0.57
2022-12-17T10:22:38.971Z,-0.47
2022-12-17T10:25:39.951Z,-0.43
2022-12-17T10:28:42.193Z,-0.51
2022-12-17T10:31:39.246Z,-0.60
2022-12-17T10:34:32.214Z,-0.37
2022-12-17T10:37:18.181Z,-0.47
2022-12-17T10:40:14.938Z,-0.35
2022-12-17T10:43:03.527Z,-0.33
2022-12-17T10:45:54.645Z,-0.18
2022-12-17T10:48:46.798Z,-0.17
2022-12-17T10:51:55.802Z,-0.08
2022-12-17T10:54:50.290Z,-0.05
2022-12-17T10:57:55.546Z,0.03
2022-12-17T11:00:49.850Z,0.14
2022-12-17T11:04:12.063Z,0.11
2022-12-17T11:07:09.958Z,0.25
2022-12-17T11:10:10.435Z,0.28
2022-12-17T11:13:13.210Z,0.40
2022-12-17T11:16:07.312Z,0.42
2022-12-17T11:19:30.748Z,0.49
2022-12-17T11:22:31.575Z,0.23
2022-12-17T11:25:32.116Z,0.45
2022-12-17T11:28:41.877Z,0.44
2022-12-17T11:31:36.927Z,0.31
2022-12-17T11:34:50.680Z,0.39
2022-12-17T11:37:43.587Z,0.42
2022-12-17T11:40:58.834Z,0.31
2022-12-17T11:44:09.453Z,0.53
2022-12-17T11:47:20.958Z,0.31
2022-12-17T11:50:17.560Z,0.36
2022-12-17T11:54:01.851Z,0.62
2022-12-17T11:57:01.420Z,0.59
2022-12-17T11:59:58.289Z,0.48
2022-12-17T12:03:12.585Z,0.64
2022-12-17T12:06:21.316Z,0.28
2022-12-17T12:09:41.760Z,0.53
2022-12-17T12:12:51.076Z,0.31
2022-12-17T12:15:48.551Z,0.34
2022-12-17T12:18:49.756Z,0.34
2022-12-17T12:22:11.517Z,0.59
2022-12-17T12:25:32.603Z,0.72
2022-12-17T12:28:41.469Z,0.63
2022-12-17T12:31:58.260Z,0.86
2022-12-17T12:34:49.795Z,0.62
2022-12-17T12:37:39.240Z,0.73
2022-12-17T12:41:09.674Z,0.77
2022-12-17T12:44:05.301Z,0.76
2022-12-17T12:47:14.634Z,0.81
2022-12-17T12:50:15.224Z,0.84
2022-12-17T12:53:01.804Z,0.67
2022-12-17T12:56:01.390Z,0.99
2022-12-17T12:58:53.005Z,0.89
2022-12-17T13:01:51.655Z,1.06
2022-12-17T13:04:54.355Z,1.50
2022-12-17T13:07:27.380Z,1.70
2022-12-17T13:09:58.181Z,1.29
2022-12-17T13:12:40.732Z,1.28
2022-12-17T13:15:07.785Z,1.43
2022-12-17T13:17:55.174Z,1.96
2022-12-17T13:20:31.311Z,2.09
2022-12-17T13:23:26.877Z,2.01
2022-12-17T13:26:16.902Z,1.74
2022-12-17T13:29:28.723Z,1.92
2022-12-17T13:32:25.869Z,1.72
2022-12-17T13:35:15.363Z,1.88
2022-12-17T13:38:19.848Z,1.80
2022-12-17T13:41:10.501Z,1.53
2022-12-17T13:43:48.827Z,1.37
2022-12-17T13:46:23.428Z,1.30
2022-12-17T13:48:59.283Z,1.50
2022-12-17T13:51:31.513Z,1.43
2022-12-17T13:54:02.739Z,1.61
2022-12-17T13:56:36.838Z,1.61
2022-12-17T13:59:09.153Z,1.65
2022-12-17T14:01:53.532Z,1.84
2022-12-17T14:04:26.507Z,1.17
2022-12-17T14:06:59.053Z,1.00
2022-12-17T14:09:42.828Z,1.14
2022-12-17T14:12:22.138Z,1.25
2022-12-17T14:15:28.179Z,1.28
2022-12-17T14:17:58.701Z,0.75
2022-12-17T14:20:32.125Z,0.74
2022-12-17T14:23:14.868Z,0.95
2022-12-17T14:25:44.458Z,0.90
2022-12-17T14:28:32.768Z,0.98
2022-12-17T14:34:10.883Z,0.83
2022-12-17T14:36:43.814Z,0.45
2022-12-17T14:39:24.995Z,0.34
2022-12-17T14:42:14.351Z,0.57
2022-12-17T14:44:55.603Z,0.56
2022-12-17T14:47:27.807Z,0.36
2022-12-17T14:50:10.337Z,0.30
2022-12-17T14:52:44.397Z,0.26
2022-12-17T14:55:55.683Z,0.06
2022-12-17T14:58:26.619Z,-0.10
2022-12-17T15:01:06.096Z,-0.15
2022-12-17T15:03:40.057Z,-0.24
2022-12-17T15:06:11.919Z,-0.14
2022-12-17T15:08:46.926Z,-0.41
2022-12-17T15:11:20.879Z,-0.31
2022-12-17T15:13:53.040Z,-0.27
2022-12-17T15:16:23.571Z,-0.17
2022-12-17T15:18:50.846Z,-0.40
2022-12-17T15:21:19.630Z,-0.53
2022-12-17T15:23:47.953Z,-0.62
2022-12-17T15:26:15.355Z,-0.77
2022-12-17T15:28:43.775Z,-0.76
2022-12-17T15:31:14.509Z,-0.73
2022-12-17T15:33:42.805Z,-0.82
2022-12-17T15:36:11.976Z,-0.85
2022-12-17T15:38:39.618Z,-1.08
2022-12-17T15:41:26.092Z,-0.84
2022-12-17T15:43:53.442Z,-0.98
2022-12-17T15:46:20.686Z,-1.19
2022-12-17T15:48:50.432Z,-1.13
2022-12-17T15:51:20.900Z,-1.02
2022-12-17T15:53:48.550Z,-1.18
2022-12-17T15:56:22.597Z,-1.31
2022-12-17T15:58:50.199Z,-1.58
2022-12-17T16:01:19.676Z,-1.60
2022-12-17T16:03:47.151Z,-1.53
2022-12-17T16:06:14.510Z,-1.36
2022-12-17T16:08:41.737Z,-1.35
2022-12-17T16:11:11.580Z,-1.55
2022-12-17T16:13:40.099Z,-1.61
2022-12-17T16:16:08.195Z,-1.63
2022-12-17T16:18:38.561Z,-1.71
2022-12-17T16:21:08.699Z,-1.80
2022-12-17T16:23:36.192Z,-1.64
2022-12-17T16:26:06.461Z,-1.50
2022-12-17T16:28:35.883Z,-1.61
2022-12-17T16:31:11.578Z,-1.56
2022-12-17T16:33:42.049Z,-1.84
2022-12-17T16:36:14.404Z,-1.61
2022-12-17T16:38:49.944Z,-1.71
2022-12-17T16:41:18.552Z,-1.78
2022-12-17T16:43:46.822Z,-1.99
2022-12-17T16:46:28.431Z,-2.19
2022-12-17T16:48:58.386Z,-2.16
2022-12-17T16:51:29.205Z,-2.21
2022-12-17T16:53:59.124Z,-2.31
2022-12-17T16:56:28.488Z,-2.23
2022-12-17T16:58:56.679Z,-2.37
2022-12-17T17:01:28.946Z,-2.28
2022-12-17T17:03:56.849Z,-2.23
2022-12-17T17:06:27.814Z,-2.36
2022-12-17T17:08:58.948Z,-2.25
2022-12-17T17:11:26.186Z,-2.52
2022-12-17T17:13:54.745Z,-2.29
2022-12-17T17:16:24.762Z,-2.34
2022-12-17T17:18:53.635Z,-2.34
2022-12-17T17:21:21.544Z,-2.11
2022-12-17T17:24:07.145Z,-2.15
2022-12-17T17:26:34.812Z,-1.93
2022-12-17T17:29:03.435Z,-1.99
2022-12-17T17:32:09.287Z,-1.93
2022-12-17T17:34:18.857Z,-2.30
2022-12-17T17:36:46.092Z,-2.30
2022-12-17T17:39:14.856Z,-2.29
2022-12-17T17:41:42.025Z,-2.49
2022-12-17T17:44:13.271Z,-2.25
2022-12-17T17:46:41.274Z,-2.40
2022-12-17T17:49:09.263Z,-2.24
2022-12-17T17:54:28.859Z,-2.37
2022-12-17T17:56:56.023Z,-2.52
2022-12-17T17:59:29.521Z,-2.77
2022-12-17T18:02:00.699Z,-2.71
2022-12-17T18:04:28.387Z,-2.64
2022-12-17T18:07:24.063Z,-2.39
2022-12-17T18:09:42.744Z,-2.44
2022-12-17T18:12:28.527Z,-2.40
2022-12-17T18:17:45.226Z,-2.63
2022-12-17T18:20:13.666Z,-2.89
2022-12-17T18:22:40.890Z,-2.68
2022-12-17T18:25:08.423Z,-2.46
2022-12-17T18:27:35.618Z,-2.48
2022-12-17T18:30:03.514Z,-2.63
2022-12-17T18:32:30.720Z,-2.75
2022-12-17T18:34:57.945Z,-2.59
2022-12-17T18:37:25.230Z,-2.23
2022-12-17T18:39:52.400Z,-2.23
2022-12-17T18:42:38.601Z,-2.51
2022-12-17T18:45:06.658Z,-2.95
2022-12-17T18:47:33.816Z,-2.89
2022-12-17T18:50:00.963Z,-2.71
2022-12-17T18:52:28.153Z,-2.76
2022-12-17T18:54:55.358Z,-2.98
2022-12-17T18:57:22.582Z,-2.87
2022-12-17T18:59:49.861Z,-2.95
2022-12-17T19:02:17.416Z,-3.10
2022-12-17T19:04:44.681Z,-2.95
2022-12-17T19:07:11.947Z,-2.99
2022-12-17T19:09:40.370Z,-3.31
2022-12-17T19:12:09.607Z,-3.26
2022-12-17T19:14:37.311Z,-3.37
2022-12-17T19:17:05.888Z,-3.23
2022-12-17T19:19:33.654Z,-3.03
2022-12-17T19:22:02.019Z,-2.89
2022-12-17T19:24:29.276Z,-3.41
2022-12-17T19:26:56.671Z,-3.83
2022-12-17T19:29:24.257Z,-3.78
2022-12-17T19:31:51.697Z,-3.83
2022-12-17T19:34:19.580Z,-3.42
2022-12-17T19:36:47.656Z,-3.75
2022-12-17T19:39:18.981Z,-3.27
2022-12-17T19:41:46.568Z,-3.46
2022-12-17T19:44:16.911Z,-3.62
2022-12-17T19:46:44.776Z,-3.43
2022-12-17T19:49:14.807Z,-3.77
2022-12-17T19:51:43.946Z,-3.74
2022-12-17T19:54:15.251Z,-3.85
2022-12-17T19:56:44.949Z,-4.03
2022-12-17T19:59:13.710Z,-3.98
2022-12-17T20:01:45.718Z,-3.96
2022-12-17T20:04:16.236Z,-4.01
2022-12-17T20:06:44.986Z,-3.66
2022-12-17T20:09:13.391Z,-3.55
2022-12-17T20:11:41.262Z,-3.57
2022-12-17T20:14:21.629Z,-3.82
2022-12-17T20:16:53.433Z,-4.16
2022-12-17T20:19:30.809Z,-3.78
2022-12-17T20:22:01.064Z,-3.78
2022-12-17T20:24:31.664Z,-4.62
2022-12-17T20:27:00.939Z,-4.06
2022-12-17T20:29:29.292Z,-3.76
2022-12-17T20:31:56.624Z,-3.83
2022-12-17T20:34:25.317Z,-3.70
2022-12-17T20:36:53.933Z,-3.59
2022-12-17T20:39:26.594Z,-4.60
2022-12-17T20:41:56.703Z,-5.23
2022-12-17T20:44:24.064Z,-4.71
2022-12-17T20:46:51.317Z,-4.57
2022-12-17T20:49:18.795Z,-4.50
2022-12-17T20:51:45.934Z,-4.23
2022-12-17T20:54:13.174Z,-4.49
2022-12-17T20:56:40.942Z,-4.22
2022-12-17T20:59:14.566Z,-5.00
2022-12-17T21:01:42.006Z,-4.60
2022-12-17T21:04:13.179Z,-4.29
2022-12-17T21:06:44.358Z,-4.60
2022-12-17T21:09:13.859Z,-4.38
2022-12-17T21:11:42.300Z,-4.42
2022-12-17T21:14:17.095Z,-4.60
2022-12-17T21:16:45.119Z,-4.30
2022-12-17T21:19:18.748Z,-4.42
2022-12-17T21:21:46.143Z,-4.27
2022-12-17T21:24:13.379Z,-4.35
2022-12-17T21:26:43.839Z,-4.28
2022-12-17T21:29:12.026Z,-4.67
2022-12-17T21:31:44.267Z,-4.57
2022-12-17T21:34:16.245Z,-4.81
2022-12-17T21:36:44.515Z,-4.47
2022-12-17T21:39:13.182Z,-4.47
2022-12-17T21:41:43.659Z,-4.74
2022-12-17T21:44:15.499Z,-4.81
2022-12-17T21:46:46.749Z,-4.92
2022-12-17T21:49:18.036Z,-5.33
2022-12-17T21:51:45.520Z,-5.22
2022-12-17T21:54:18.934Z,-5.90
2022-12-17T21:56:47.913Z,-5.43
2022-12-17T21:59:15.600Z,-5.15
2022-12-17T22:01:42.950Z,-5.43
2022-12-17T22:04:10.285Z,-4.93
2022-12-17T22:06:51.136Z,-5.31
2022-12-17T22:09:33.338Z,-5.29
2022-12-17T22:12:27.507Z,-6.40
2022-12-17T22:14:54.970Z,-5.60
2022-12-17T22:17:22.737Z,-5.32
2022-12-17T22:19:49.926Z,-5.76
2022-12-17T22:22:17.118Z,-6.14
2022-12-17T22:24:44.428Z,-6.34
2022-12-17T22:27:11.691Z,-6.04
2022-12-17T22:29:57.444Z,-6.00
2022-12-17T22:32:43.298Z,-6.11
2022-12-17T22:36:28.986Z,-6.32
2022-12-17T22:40:57.018Z,-6.52
2022-12-17T22:44:29.535Z,-6.14
2022-12-17T22:44:46.141Z,-6.74
2022-12-17T22:46:22.627Z,-6.56
2022-12-17T22:48:49.933Z,-6.36
2022-12-17T22:51:21.228Z,-6.21
2022-12-17T22:53:54.424Z,-5.82
2022-12-17T22:56:37.913Z,-6.00
2022-12-17T22:59:16.745Z,-5.97
2022-12-17T23:01:44.731Z,-6.26
2022-12-17T23:04:15.499Z,-6.56
2022-12-17T23:06:45.422Z,-6.31
2022-12-17T23:09:18.961Z,-6.31
2022-12-17T23:11:48.747Z,-5.66
2022-12-17T23:14:17.055Z,-5.45
2022-12-17T23:16:44.628Z,-6.01
2022-12-17T23:19:12.628Z,-5.99
2022-12-17T23:21:39.785Z,-6.25
2022-12-17T23:24:07.703Z,-5.95
2022-12-17T23:26:37.727Z,-5.60
2022-12-17T23:29:17.618Z,-5.64
2022-12-17T23:31:47.371Z,-6.16
2022-12-17T23:34:14.758Z,-6.10
2022-12-17T23:36:41.963Z,-6.84
2022-12-17T23:39:09.406Z,-6.76
2022-12-17T23:41:36.660Z,-6.46
2022-12-17T23:44:03.929Z,-5.88
2022-12-17T23:46:31.729Z,-5.97
2022-12-17T23:48:59.119Z,-5.70
2022-12-17T23:51:28.046Z,-6.78
2022-12-17T23:53:55.367Z,-6.12
2022-12-17T23:56:26.532Z,-6.01
2022-12-17T23:59:00.281Z,-6.13
